Time;durP1;ratioP1;P1;durP2;ratioP2;P2;SDS_P1;SDS_P2;PMS_P1;PMS_P2;Temp;Humidity;BMP_temperature;BMP_pressure;BME280_temperature;BME280_humidity;BME280_pressure;Samples;Min_cycle;Max_cycle;Signal;HPM_P1;HPM_P2
2022/08/12 00:51:02;;;;;;;1.17;0.75;;;;;;;;;;21020317;28;20249;-79
2022/08/12 01:01:07;;;;;;;1.65;0.70;;;;;;;;;;20995915;28;20749;-79
2022/08/12 01:11:28;;;;;;;2.75;0.88;;;25.00;76.40;;;;;;20988792;28;20642;-79
2022/08/12 01:21:56;;;;;;;0.70;0.60;;;;;;;;;;20992757;28;20222;-80
2022/08/12 01:31:58;;;;;;;1.92;0.70;;;;;;;;;;21068901;28;20304;-79
2022/08/12 01:42:05;;;;;;;2.25;0.90;;;;;;;;;;21073598;28;20270;-81
2022/08/12 01:52:14;;;;;;;1.00;0.60;;;23.50;73.00;;;;;;21057313;28;20578;-79
2022/08/12 02:02:20;;;;;;;1.92;1.00;;;;;;;;;;21074539;28;20224;-78
2022/08/12 02:12:33;;;;;;;2.80;0.70;;;;;;;;;;21055652;28;20893;-80
2022/08/12 02:22:39;;;;;;;3.88;1.00;;;;;;;;;;21072219;28;20215;-81
2022/08/12 02:32:43;;;;;;;1.45;0.60;;;;;;;;;;21054481;28;20311;-80
2022/08/12 02:43:03;;;;;;;2.28;0.68;;;;;;;;;;21038238;28;20221;-81
2022/08/12 02:53:04;;;;;;;1.45;0.57;;;;;;;;;;21079393;28;20635;-80
2022/08/12 03:03:11;;;;;;;3.03;1.00;;;;;;;;;;21087077;28;20272;-78
2022/08/12 03:13:13;;;;;;;1.73;0.80;;;;;;;;;;21080892;28;20238;-78
2022/08/12 03:23:15;;;;;;;1.23;0.70;;;23.80;81.10;;;;;;21002478;28;20203;-80
2022/08/12 03:33:18;;;;;;;1.50;0.55;;;24.60;82.10;;;;;;21062863;28;20222;-80
2022/08/12 04:04:10;;;;;;;2.53;0.68;;;;;;;;;;21064381;28;20673;-79
2022/08/12 04:14:19;;;;;;;4.72;1.33;;;23.30;84.80;;;;;;21081933;28;20312;-79
2022/08/12 04:24:24;;;;;;;3.67;0.80;;;;;;;;;;21080972;28;20220;-80
2022/08/12 04:34:27;;;;;;;1.95;0.98;;;;;;;;;;20998772;28;20302;-80
2022/08/12 04:44:30;;;;;;;3.50;0.90;;;;;;;;;;20979713;28;20209;-79
2022/08/12 04:54:33;;;;;;;5.38;0.75;;;;;;;;;;20978373;28;20292;-79
2022/08/12 05:04:35;;;;;;;3.78;1.35;;;;;;;;;;20993247;28;20213;-79
2022/08/12 05:14:38;;;;;;;2.97;1.17;;;;;;;;;;20993849;28;20262;-79
2022/08/12 05:24:40;;;;;;;3.88;0.70;;;;;;;;;;21019206;28;20273;-79
2022/08/12 05:34:44;;;;;;;1.40;0.80;;;;;;;;;;21007449;28;20228;-79
2022/08/12 05:44:46;;;;;;;6.97;1.10;;;;;;;;;;21066086;28;20218;-80
2022/08/12 05:54:48;;;;;;;3.38;0.90;;;;;;;;;;20899374;28;20279;-80
2022/08/12 06:04:49;;;;;;;2.83;0.95;;;;;;;;;;20996217;28;20264;-80
2022/08/12 06:14:54;;;;;;;2.25;0.73;;;;;;;;;;21035663;28;20584;-79
2022/08/12 06:24:56;;;;;;;1.38;0.63;;;;;;;;;;21004881;28;20696;-79
2022/08/12 06:34:58;;;;;;;3.15;0.70;;;;;;;;;;20990952;28;20230;-80
2022/08/12 06:45:00;;;;;;;3.20;0.90;;;;;;;;;;21021992;28;20249;-80
2022/08/12 06:55:03;;;;;;;1.98;0.88;;;;;;;;;;21069285;28;20647;-81
2022/08/12 07:05:05;;;;;;;2.00;0.60;;;;;;;;;;21032134;28;20275;-80
2022/08/12 07:15:07;;;;;;;1.33;0.80;;;24.50;78.80;;;;;;21064653;28;20334;-77
2022/08/12 07:35:32;;;;;;;3.03;1.00;;;25.10;81.70;;;;;;21055488;28;20791;-78
2022/08/12 07:45:34;;;;;;;1.73;0.68;;;;;;;;;;21014271;28;20230;-79
2022/08/12 07:55:36;;;;;;;1.55;0.63;;;;;;;;;;21016921;28;20794;-79
2022/08/12 08:05:48;;;;;;;0.93;0.60;;;;;;;;;;21008924;28;20875;-78
2022/08/12 08:15:52;;;;;;;1.65;0.68;;;;;;;;;;20996168;28;20774;-79
2022/08/12 08:25:54;;;;;;;1.33;0.47;;;;;;;;;;20978343;28;20279;-79
2022/08/12 08:35:56;;;;;;;1.23;0.50;;;;;;;;;;20979762;28;20321;-79
2022/08/12 08:45:58;;;;;;;0.73;0.60;;;;;;;;;;20995721;28;20630;-79
2022/08/12 08:55:59;;;;;;;2.65;0.40;;;;;;;;;;20993330;28;20212;-79
2022/08/12 09:06:01;;;;;;;1.38;0.40;;;;;;;;;;20973587;28;20220;-79
2022/08/12 09:16:07;;;;;;;0.70;0.40;;;;;;;;;;20994105;28;20236;-79
2022/08/12 09:26:09;;;;;;;0.93;0.60;;;;;;;;;;21014648;28;20228;-77
2022/08/12 09:36:10;;;;;;;1.45;0.70;;;;;;;;;;20997789;28;20232;-78
2022/08/12 09:46:15;;;;;;;1.38;0.60;;;;;;;;;;20991050;28;20337;-79
2022/08/12 09:56:17;;;;;;;1.15;0.50;;;;;;;;;;21050260;28;20230;-78
2022/08/12 10:06:20;;;;;;;2.85;0.60;;;;;;;;;;21022936;28;20220;-80
2022/08/12 10:16:33;;;;;;;3.17;0.75;;;28.50;65.70;;;;;;21005592;28;20240;-78
2022/08/12 10:36:58;;;;;;;1.00;0.50;;;;;;;;;;21075438;28;20256;-79
2022/08/12 10:47:00;;;;;;;1.55;0.52;;;;;;;;;;21082150;28;20575;-79
2022/08/12 10:57:02;;;;;;;1.50;0.40;;;;;;;;;;21065080;28;20732;-80
2022/08/12 11:07:04;;;;;;;0.95;0.45;;;;;;;;;;20994736;28;20291;-79
2022/08/12 11:17:12;;;;;;;2.08;0.50;;;29.80;63.40;;;;;;20997857;28;20219;-80
2022/08/12 11:27:15;;;;;;;1.80;0.35;;;;;;;;;;21019359;28;20264;-78
2022/08/12 11:37:16;;;;;;;1.27;0.55;;;;;;;;;;21040530;28;20232;-80
2022/08/12 11:47:18;;;;;;;1.00;0.50;;;;;;;;;;21004323;28;20220;-79
2022/08/12 11:57:20;;;;;;;0.98;0.40;;;;;;;;;;20981433;28;20232;-79
2022/08/12 12:07:22;;;;;;;0.50;0.35;;;;;;;;;;20971358;28;20274;-78
2022/08/12 12:17:25;;;;;;;0.47;0.30;;;30.60;58.80;;;;;;20912202;28;20237;-79
2022/08/12 12:27:26;;;;;;;1.17;0.43;;;;;;;;;;21008363;28;20282;-78
2022/08/12 12:37:28;;;;;;;0.82;0.40;;;;;;;;;;20960863;28;20648;-79
2022/08/12 12:47:30;;;;;;;0.90;0.40;;;;;;;;;;20979531;28;20201;-77
2022/08/12 12:57:38;;;;;;;0.70;0.47;;;31.10;56.00;;;;;;20973484;28;20290;-80
2022/08/12 13:07:40;;;;;;;1.00;0.40;;;31.20;52.00;;;;;;20967486;28;20220;-79
2022/08/12 13:17:52;;;;;;;0.70;0.30;;;;;;;;;;21028769;28;20597;-79
2022/08/12 13:27:54;;;;;;;1.23;0.60;;;;;;;;;;21029733;28;20216;-80
2022/08/12 13:37:58;;;;;;;0.47;0.40;;;31.50;51.80;;;;;;20988422;28;20229;-78
2022/08/12 13:47:59;;;;;;;0.68;0.40;;;;;;;;;;20994084;28;20611;-80
2022/08/12 13:58:04;;;;;;;0.47;0.30;;;;;;;;;;20993755;28;20271;-79
2022/08/12 14:08:07;;;;;;;0.93;0.40;;;;;;;;;;20985024;28;20194;-81
2022/08/12 14:18:10;;;;;;;0.75;0.40;;;;;;;;;;20961714;28;20224;-80
2022/08/12 14:28:15;;;;;;;1.60;0.40;;;;;;;;;;21069931;28;20705;-81
2022/08/12 14:38:19;;;;;;;0.50;0.30;;;;;;;;;;21048661;28;20217;-80
2022/08/12 14:48:21;;;;;;;0.60;0.40;;;;;;;;;;21055788;28;20590;-80
2022/08/12 14:58:24;;;;;;;1.15;0.40;;;;;;;;;;21077806;28;20282;-79
2022/08/12 15:08:32;;;;;;;0.80;0.50;;;30.90;58.80;;;;;;21091486;28;20631;-79
2022/08/12 15:18:34;;;;;;;0.70;0.30;;;;;;;;;;21072865;28;20233;-79
2022/08/12 15:28:39;;;;;;;0.82;0.40;;;32.10;55.00;;;;;;21091861;28;20221;-80
2022/08/12 15:38:40;;;;;;;3.47;0.52;;;;;;;;;;21098730;28;20217;-79
2022/08/12 15:48:43;;;;;;;0.52;0.30;;;31.90;60.40;;;;;;21108943;28;20274;-79
2022/08/12 15:58:46;;;;;;;0.63;0.40;;;;;;;;;;21083133;28;20233;-79
2022/08/12 16:08:48;;;;;;;0.90;0.40;;;;;;;;;;21088072;28;20278;-78
2022/08/12 16:18:50;;;;;;;0.20;0.20;;;;;;;;;;21087771;28;20236;-79
2022/08/12 16:28:54;;;;;;;0.90;0.40;;;;;;;;;;21086730;28;20297;-79
2022/08/12 16:38:57;;;;;;;0.93;0.30;;;;;;;;;;21088837;28;20274;-79
2022/08/12 16:48:58;;;;;;;3.60;0.43;;;;;;;;;;20963118;28;20209;-80
2022/08/12 16:59:01;;;;;;;2.30;0.70;;;;;;;;;;20995455;28;20233;-78
2022/08/12 17:09:03;;;;;;;0.35;0.30;;;;;;;;;;20996329;28;20274;-80
2022/08/12 17:19:08;;;;;;;2.35;0.40;;;;;;;;;;20994765;28;20294;-80
2022/08/12 17:29:10;;;;;;;2.40;0.50;;;;;;;;;;20986518;28;20229;-79
2022/08/12 17:39:12;;;;;;;0.47;0.28;;;;;;;;;;20978161;28;20279;-80
2022/08/12 17:49:15;;;;;;;3.33;0.47;;;;;;;;;;21049603;28;20293;-79
2022/08/12 17:59:21;;;;;;;0.50;0.25;;;;;;;;;;21088356;28;20272;-79
2022/08/12 18:09:23;;;;;;;1.98;0.68;;;;;;;;;;21010578;28;20225;-79
2022/08/12 18:19:25;;;;;;;2.35;0.43;;;;;;;;;;20990908;28;20293;-78
2022/08/12 18:29:27;;;;;;;2.00;0.40;;;;;;;;;;20953580;28;20285;-78
2022/08/12 18:41:27;;;;;;;0.98;0.47;;;;;;;;;;20972434;28;20235;-79
2022/08/12 18:49:52;;;;;;;1.55;0.45;;;;;;;;;;21031899;28;20221;-79
2022/08/12 18:59:56;;;;;;;1.55;0.50;;;;;;;;;;20979944;28;20254;-81
2022/08/12 19:09:58;;;;;;;2.42;0.38;;;;;;;;;;20954565;28;20241;-81
2022/08/12 19:20:02;;;;;;;3.55;0.80;;;28.90;60.30;;;;;;21054557;28;20227;-79
2022/08/12 19:30:06;;;;;;;2.38;0.57;;;28.50;62.80;;;;;;21025142;28;20254;-79
2022/08/12 19:40:10;;;;;;;1.33;0.50;;;;;;;;;;20991238;28;20243;-81
2022/08/12 19:50:13;;;;;;;0.30;0.30;;;28.50;60.20;;;;;;21076010;28;20219;-78
2022/08/12 20:00:18;;;;;;;1.02;0.25;;;;;;;;;;21066394;28;20216;-78
2022/08/12 20:10:20;;;;;;;2.75;0.50;;;;;;;;;;21078883;28;20232;-79
2022/08/12 20:20:27;;;;;;;4.28;0.70;;;;;;;;;;21082134;28;20294;-87
2022/08/12 20:31:06;;;;;;;1.00;0.45;;;;;;;;;;20989499;28;20257;-88
2022/08/12 20:41:28;;;;;;;2.00;0.60;;;;;;;;;;21075235;28;20234;-88
2022/08/12 20:52:11;;;;;;;3.33;0.70;;;;;;;;;;21055668;28;20249;-84
2022/08/12 21:02:14;;;;;;;1.50;0.50;;;;;;;;;;21060414;28;20280;-86
2022/08/12 21:12:19;;;;;;;3.47;0.70;;;;;;;;;;21042585;28;20230;-84
2022/08/12 21:22:28;;;;;;;1.75;0.50;;;;;;;;;;21043352;28;20207;-85
2022/08/12 21:32:31;;;;;;;1.08;0.68;;;;;;;;;;21058509;28;20588;-83
2022/08/12 21:42:36;;;;;;;0.90;0.57;;;;;;;;;;21040712;28;21053;-85
2022/08/12 21:52:42;;;;;;;0.77;0.38;;;;;;;;;;21058461;28;20776;-84
2022/08/12 22:13:07;;;;;;;0.98;0.40;;;;;;;;;;21083455;28;20433;-85
2022/08/12 22:23:09;;;;;;;0.75;0.40;;;;;;;;;;21042479;28;20271;-84
2022/08/12 22:33:12;;;;;;;1.42;0.60;;;;;;;;;;21077945;28;20227;-84
2022/08/12 22:53:35;;;;;;;0.30;0.30;;;;;;;;;;21020587;28;20238;-83
2022/08/12 23:03:39;;;;;;;3.63;0.70;;;;;;;;;;21056571;28;20558;-87
2022/08/12 23:13:55;;;;;;;2.38;0.60;;;;;;;;;;21051918;28;20227;-85
2022/08/12 23:23:57;;;;;;;3.58;0.60;;;;;;;;;;21056785;28;20224;-86
2022/08/12 23:33:59;;;;;;;1.17;0.45;;;;;;;;;;21036700;28;20292;-83
2022/08/12 23:44:02;;;;;;;2.05;0.50;;;;;;;;;;21084544;28;20569;-82
2022/08/12 23:54:06;;;;;;;2.58;0.57;;;;;;;;;;21085639;28;20288;-83
